Saint Cloud, MN

12:03 AM CDT on July 25, 2016 (GMT -0500)
Leighton- KNSI-KCLD-KCML-KZPK | | Change Station

Elev 1040 ft 45.56 °N, 94.16 °W | Updated 1 second ago

Clear
Clear
71.3 °F
Feels Like 75 °F
N
2.0
Wind Variable Wind from SSW
Gusts 4.0 mph

Today
High -- | Low -- °F
--% Chance of Precip.
Yesterday
High -- | Low -- °F
Precip. -- in
Pressure 29.99 in
Visibility 10.0 miles
Clouds Clear
Heat Index 75 °F
Dew Point 60 °F
Humidity 67%
Rainfall 0.00 in
Snow Depth Not available.
5:52 AM 8:52 PM
Waning Gibbous, 69% visible
METAR KSTC 250453Z 29008KT 10SM CLR 21/16 A2998 RMK AO2 SLP154 T02060156
Pressure 29.99 in
Visibility 10.0 miles
Clouds Clear
Heat Index 75 °F
Dew Point 60 °F
Humidity 67%
Rainfall 0.00 in
Snow Depth Not available.
5:52 AM 8:52 PM
Waning Gibbous, 69% visible
METAR KSTC 250453Z 29008KT 10SM CLR 21/16 A2998 RMK AO2 SLP154 T02060156

10-Day Weather Forecast

Almanac

Astronomy

Jul. 25, 2016 Rise Set
Actual Time
Civil Twilight
Nautical Twilight
Astronomical Twilight
Moon
Length of Visible Light
Length of Day
Tomorrow will be .
, % of the Moon is Illuminated

Today's Extremes

State Highs State Lows

Community

WunderPhotos

Upload Photos

1,927,270 photos uploaded!

WunderBlog® & News

Nearby

Air Quality

  Air Quality AQ Index Pollutant
Not available.

Snow Depth

Station Depth Elevation

Earthquake Activity

City Distance Mag. Time & Date
Minimum magnitude displayed is 2.5.

Coastal Water Temperatures

Place Temperature

Stations

Nearby Weather Stations

Station Location Temp. Windchill Dew Point Humidity Wind Precip. Elev Updated Type
                   

Watches & Warnings

There are currently no watches in effect.